sensor_id;sensor_type;location;lat;lon;timestamp;pressure;altitude;pressure_sealevel;temperature;humidity
69737;BME280;64476;55.004;73.342;2023-03-09T00:01:04;101698.72;;;-8.02;52.82
69737;BME280;64476;55.004;73.342;2023-03-09T00:04:19;101664.81;;;-8.13;52.77
69737;BME280;64476;55.004;73.342;2023-03-09T00:07:24;101656.44;;;-8.26;52.62
69737;BME280;64476;55.004;73.342;2023-03-09T00:10:25;101695.44;;;-8.16;52.73
69737;BME280;64476;55.004;73.342;2023-03-09T00:13:27;101695.50;;;-8.22;53.07
69737;BME280;64476;55.004;73.342;2023-03-09T00:16:29;101687.09;;;-8.35;53.50
69737;BME280;64476;55.004;73.342;2023-03-09T00:19:31;101687.13;;;-8.37;53.09
69737;BME280;64476;55.004;73.342;2023-03-09T00:26:24;101610.16;;;-8.81;53.21
69737;BME280;64476;55.004;73.342;2023-03-09T00:29:32;101621.00;;;-8.58;52.53
69737;BME280;64476;55.004;73.342;2023-03-09T00:32:33;101672.56;;;-8.25;53.17
69737;BME280;64476;55.004;73.342;2023-03-09T00:35:45;101639.59;;;-8.45;53.23
69737;BME280;64476;55.004;73.342;2023-03-09T00:38:51;101533.06;;;-9.10;53.29
69737;BME280;64476;55.004;73.342;2023-03-09T00:41:53;101642.13;;;-8.41;52.79
69737;BME280;64476;55.004;73.342;2023-03-09T00:48:02;101660.69;;;-8.26;53.20
69737;BME280;64476;55.004;73.342;2023-03-09T00:51:05;101463.72;;;-9.42;52.89
69737;BME280;64476;55.004;73.342;2023-03-09T00:54:06;101669.91;;;-8.11;52.71
69737;BME280;64476;55.004;73.342;2023-03-09T00:57:08;101647.94;;;-8.26;52.71
69737;BME280;64476;55.004;73.342;2023-03-09T01:00:11;101657.28;;;-8.25;53.03
69737;BME280;64476;55.004;73.342;2023-03-09T01:03:18;101515.31;;;-9.20;53.17
69737;BME280;64476;55.004;73.342;2023-03-09T01:06:23;101686.13;;;-8.19;53.39
69737;BME280;64476;55.004;73.342;2023-03-09T01:09:28;101613.28;;;-8.47;53.44
69737;BME280;64476;55.004;73.342;2023-03-09T01:12:30;101617.41;;;-8.34;53.24
69737;BME280;64476;55.004;73.342;2023-03-09T01:15:32;101590.28;;;-8.43;53.34
69737;BME280;64476;55.004;73.342;2023-03-09T01:18:34;101655.34;;;-8.02;53.61
69737;BME280;64476;55.004;73.342;2023-03-09T01:22:08;101640.06;;;-8.03;53.65
69737;BME280;64476;55.004;73.342;2023-03-09T01:25:10;101640.84;;;-7.95;53.49
69737;BME280;64476;55.004;73.342;2023-03-09T01:28:15;101617.09;;;-8.00;53.52
69737;BME280;64476;55.004;73.342;2023-03-09T01:31:21;101572.22;;;-8.18;53.66
69737;BME280;64476;55.004;73.342;2023-03-09T01:34:28;101618.59;;;-7.82;53.70
69737;BME280;64476;55.004;73.342;2023-03-09T01:37:40;101621.16;;;-7.84;54.26
69737;BME280;64476;55.004;73.342;2023-03-09T01:40:45;101620.16;;;-7.72;53.92
69737;BME280;64476;55.004;73.342;2023-03-09T01:43:50;101627.78;;;-7.68;53.70
69737;BME280;64476;55.004;73.342;2023-03-09T01:46:56;101636.25;;;-7.64;53.75
69737;BME280;64476;55.004;73.342;2023-03-09T01:54:19;101609.09;;;-7.70;54.07
69737;BME280;64476;55.004;73.342;2023-03-09T01:57:47;101541.66;;;-8.24;54.11
69737;BME280;64476;55.004;73.342;2023-03-09T02:05:06;101598.28;;;-7.92;54.80
69737;BME280;64476;55.004;73.342;2023-03-09T02:08:53;101552.69;;;-8.22;55.06
69737;BME280;64476;55.004;73.342;2023-03-09T02:11:57;101586.44;;;-7.99;54.78
69737;BME280;64476;55.004;73.342;2023-03-09T02:15:02;101520.34;;;-8.17;54.64
69737;BME280;64476;55.004;73.342;2023-03-09T02:18:10;101599.00;;;-7.79;54.91
69737;BME280;64476;55.004;73.342;2023-03-09T02:24:46;101598.84;;;-7.67;54.98
69737;BME280;64476;55.004;73.342;2023-03-09T02:32:31;101584.25;;;-7.55;54.60
69737;BME280;64476;55.004;73.342;2023-03-09T02:35:38;101571.41;;;-7.49;54.31
69737;BME280;64476;55.004;73.342;2023-03-09T02:38:59;101447.25;;;-8.18;54.82
69737;BME280;64476;55.004;73.342;2023-03-09T02:42:06;101513.88;;;-7.76;54.61
69737;BME280;64476;55.004;73.342;2023-03-09T02:53:19;101496.84;;;-7.74;55.04
69737;BME280;64476;55.004;73.342;2023-03-09T02:56:32;101512.81;;;-7.58;54.87
69737;BME280;64476;55.004;73.342;2023-03-09T02:59:33;101574.38;;;-7.18;54.85
69737;BME280;64476;55.004;73.342;2023-03-09T03:02:36;101567.44;;;-7.10;55.21
69737;BME280;64476;55.004;73.342;2023-03-09T03:05:38;101545.38;;;-7.14;55.07
69737;BME280;64476;55.004;73.342;2023-03-09T03:08:44;101532.63;;;-7.16;55.36
69737;BME280;64476;55.004;73.342;2023-03-09T03:11:48;101518.84;;;-7.05;54.80
69737;BME280;64476;55.004;73.342;2023-03-09T03:14:55;101554.88;;;-6.70;54.94
69737;BME280;64476;55.004;73.342;2023-03-09T03:18:02;101518.53;;;-6.85;55.03
69737;BME280;64476;55.004;73.342;2023-03-09T03:21:04;101563.16;;;-6.54;54.65
69737;BME280;64476;55.004;73.342;2023-03-09T03:24:08;101537.56;;;-6.52;54.64
69737;BME280;64476;55.004;73.342;2023-03-09T03:27:11;101560.19;;;-6.31;54.33
69737;BME280;64476;55.004;73.342;2023-03-09T03:30:13;101557.00;;;-6.42;54.97
69737;BME280;64476;55.004;73.342;2023-03-09T03:33:22;101551.75;;;-6.36;54.82
69737;BME280;64476;55.004;73.342;2023-03-09T03:36:31;101572.94;;;-6.29;54.93
69737;BME280;64476;55.004;73.342;2023-03-09T03:44:01;101570.97;;;-6.15;54.72
69737;BME280;64476;55.004;73.342;2023-03-09T03:47:03;101571.75;;;-6.10;54.76
69737;BME280;64476;55.004;73.342;2023-03-09T03:50:07;101527.09;;;-6.38;54.85
69737;BME280;64476;55.004;73.342;2023-03-09T03:53:21;101516.72;;;-6.31;54.59
69737;BME280;64476;55.004;73.342;2023-03-09T03:56:23;101483.03;;;-6.53;54.63
69737;BME280;64476;55.004;73.342;2023-03-09T04:03:52;101567.19;;;-5.96;54.30
69737;BME280;64476;55.004;73.342;2023-03-09T04:07:02;101561.22;;;-5.95;54.31
69737;BME280;64476;55.004;73.342;2023-03-09T04:10:05;101519.00;;;-6.17;54.91
69737;BME280;64476;55.004;73.342;2023-03-09T04:13:10;101477.56;;;-6.36;54.60
69737;BME280;64476;55.004;73.342;2023-03-09T04:16:14;101549.16;;;-5.89;54.83
69737;BME280;64476;55.004;73.342;2023-03-09T04:19:17;101577.63;;;-5.61;54.87
69737;BME280;64476;55.004;73.342;2023-03-09T04:22:19;101551.88;;;-5.55;54.52
69737;BME280;64476;55.004;73.342;2023-03-09T04:25:22;101553.38;;;-5.45;54.16
69737;BME280;64476;55.004;73.342;2023-03-09T04:28:34;101552.25;;;-5.33;54.16
69737;BME280;64476;55.004;73.342;2023-03-09T04:31:42;101557.66;;;-5.08;53.75
69737;BME280;64476;55.004;73.342;2023-03-09T04:39:19;101540.72;;;-5.14;53.16
69737;BME280;64476;55.004;73.342;2023-03-09T04:42:53;101595.31;;;-4.73;52.98
69737;BME280;64476;55.004;73.342;2023-03-09T04:45:56;101555.41;;;-4.85;53.44
69737;BME280;64476;55.004;73.342;2023-03-09T04:49:09;101592.97;;;-4.48;53.23
69737;BME280;64476;55.004;73.342;2023-03-09T04:52:17;101559.78;;;-4.54;53.19
69737;BME280;64476;55.004;73.342;2023-03-09T04:55:23;101583.97;;;-4.30;52.97
69737;BME280;64476;55.004;73.342;2023-03-09T05:06:55;101537.69;;;-4.27;53.04
69737;BME280;64476;55.004;73.342;2023-03-09T05:09:59;101533.13;;;-4.16;52.37
69737;BME280;64476;55.004;73.342;2023-03-09T05:13:01;101533.09;;;-4.14;52.72
69737;BME280;64476;55.004;73.342;2023-03-09T05:16:10;101506.69;;;-4.19;52.71
69737;BME280;64476;55.004;73.342;2023-03-09T05:19:18;101572.22;;;-3.75;52.75
69737;BME280;64476;55.004;73.342;2023-03-09T05:22:34;101574.47;;;-3.64;53.08
69737;BME280;64476;55.004;73.342;2023-03-09T05:25:36;101567.97;;;-3.46;52.61
69737;BME280;64476;55.004;73.342;2023-03-09T05:28:41;101572.94;;;-3.40;52.32
69737;BME280;64476;55.004;73.342;2023-03-09T05:31:52;101579.66;;;-3.36;52.66
69737;BME280;64476;55.004;73.342;2023-03-09T05:39:28;101585.19;;;-2.66;52.37
69737;BME280;64476;55.004;73.342;2023-03-09T05:42:31;101571.59;;;-2.44;51.74
69737;BME280;64476;55.004;73.342;2023-03-09T05:45:40;101553.78;;;-2.25;51.60
69737;BME280;64476;55.004;73.342;2023-03-09T05:52:55;101598.03;;;-1.66;50.82
69737;BME280;64476;55.004;73.342;2023-03-09T05:55:58;101559.00;;;-1.78;50.86
69737;BME280;64476;55.004;73.342;2023-03-09T05:59:00;101459.16;;;-2.19;50.89
69737;BME280;64476;55.004;73.342;2023-03-09T06:10:36;101597.59;;;-0.66;50.16
69737;BME280;64476;55.004;73.342;2023-03-09T06:17:51;101556.81;;;-0.78;49.63
69737;BME280;64476;55.004;73.342;2023-03-09T06:21:04;101554.94;;;-0.74;49.20
69737;BME280;64476;55.004;73.342;2023-03-09T06:24:09;101603.91;;;-0.30;49.21
69737;BME280;64476;55.004;73.342;2023-03-09T06:27:11;101607.13;;;-0.25;49.44
69737;BME280;64476;55.004;73.342;2023-03-09T06:30:13;101558.06;;;-0.46;49.11
69737;BME280;64476;55.004;73.342;2023-03-09T06:33:17;101611.91;;;-0.16;48.97
69737;BME280;64476;55.004;73.342;2023-03-09T06:36:24;101550.38;;;-0.47;49.26
69737;BME280;64476;55.004;73.342;2023-03-09T06:44:11;101618.09;;;0.00;49.02
69737;BME280;64476;55.004;73.342;2023-03-09T06:47:15;101621.34;;;0.05;48.23
69737;BME280;64476;55.004;73.342;2023-03-09T06:50:21;101609.84;;;0.13;48.79
69737;BME280;64476;55.004;73.342;2023-03-09T06:53:23;101504.56;;;-0.42;48.39
69737;BME280;64476;55.004;73.342;2023-03-09T06:56:30;101603.28;;;0.24;48.56
69737;BME280;64476;55.004;73.342;2023-03-09T07:03:44;101618.47;;;0.51;48.54
69737;BME280;64476;55.004;73.342;2023-03-09T07:06:47;101626.09;;;0.54;48.52
69737;BME280;64476;55.004;73.342;2023-03-09T07:09:49;101562.69;;;0.26;48.34
69737;BME280;64476;55.004;73.342;2023-03-09T07:12:50;101627.75;;;0.74;48.80
69737;BME280;64476;55.004;73.342;2023-03-09T07:16:03;101458.66;;;-0.35;48.05
69737;BME280;64476;55.004;73.342;2023-03-09T07:19:09;101575.81;;;0.41;48.82
69737;BME280;64476;55.004;73.342;2023-03-09T07:22:10;101609.16;;;0.66;48.57
69737;BME280;64476;55.004;73.342;2023-03-09T07:33:48;101640.59;;;1.13;48.13
69737;BME280;64476;55.004;73.342;2023-03-09T07:36:50;101651.66;;;1.17;47.11
69737;BME280;64476;55.004;73.342;2023-03-09T07:40:00;101628.53;;;0.95;47.96
69737;BME280;64476;55.004;73.342;2023-03-09T07:43:04;101643.56;;;1.05;48.39
69737;BME280;64476;55.004;73.342;2023-03-09T07:46:39;101633.22;;;0.87;48.27
69737;BME280;64476;55.004;73.342;2023-03-09T07:53:21;101575.28;;;0.53;48.29
69737;BME280;64476;55.004;73.342;2023-03-09T07:56:23;101662.38;;;1.09;48.00
69737;BME280;64476;55.004;73.342;2023-03-09T07:59:35;101625.38;;;0.88;47.94
69737;BME280;64476;55.004;73.342;2023-03-09T08:02:41;101662.00;;;1.17;47.76
69737;BME280;64476;55.004;73.342;2023-03-09T08:05:43;101676.22;;;1.27;48.25
69737;BME280;64476;55.004;73.342;2023-03-09T08:13:14;101666.19;;;1.38;47.61
69737;BME280;64476;55.004;73.342;2023-03-09T08:17:28;101674.91;;;1.36;46.96
69737;BME280;64476;55.004;73.342;2023-03-09T08:20:30;101463.66;;;-0.14;47.58
69737;BME280;64476;55.004;73.342;2023-03-09T08:23:39;101650.41;;;1.06;47.55
69737;BME280;64476;55.004;73.342;2023-03-09T08:30:57;101597.06;;;0.66;47.32
69737;BME280;64476;55.004;73.342;2023-03-09T08:33:59;101682.97;;;1.29;47.95
69737;BME280;64476;55.004;73.342;2023-03-09T08:41:18;101600.06;;;0.95;47.32
69737;BME280;64476;55.004;73.342;2023-03-09T08:44:31;101588.41;;;0.86;46.65
69737;BME280;64476;55.004;73.342;2023-03-09T08:47:46;101585.81;;;0.86;46.79
69737;BME280;64476;55.004;73.342;2023-03-09T08:50:48;101638.72;;;1.17;46.54
69737;BME280;64476;55.004;73.342;2023-03-09T08:54:00;101694.44;;;1.43;46.78
69737;BME280;64476;55.004;73.342;2023-03-09T08:57:01;101694.72;;;1.37;46.83
69737;BME280;64476;55.004;73.342;2023-03-09T09:00:05;101707.94;;;1.49;46.55
69737;BME280;64476;55.004;73.342;2023-03-09T09:03:18;101695.88;;;1.48;46.65
69737;BME280;64476;55.004;73.342;2023-03-09T09:06:19;101683.75;;;1.31;46.97
69737;BME280;64476;55.004;73.342;2023-03-09T09:09:28;101680.53;;;1.26;46.86
69737;BME280;64476;55.004;73.342;2023-03-09T09:12:30;101634.13;;;1.04;46.41
69737;BME280;64476;55.004;73.342;2023-03-09T09:16:07;101711.91;;;1.56;46.84
69737;BME280;64476;55.004;73.342;2023-03-09T09:19:39;101723.44;;;1.68;46.90
69737;BME280;64476;55.004;73.342;2023-03-09T09:22:45;101655.72;;;1.40;46.75
69737;BME280;64476;55.004;73.342;2023-03-09T09:25:56;101720.94;;;1.84;46.86
69737;BME280;64476;55.004;73.342;2023-03-09T09:28:58;101709.13;;;1.78;46.64
69737;BME280;64476;55.004;73.342;2023-03-09T09:32:07;101731.06;;;1.89;46.23
69737;BME280;64476;55.004;73.342;2023-03-09T09:35:10;101634.78;;;1.27;46.47
69737;BME280;64476;55.004;73.342;2023-03-09T09:38:15;101720.84;;;1.68;46.54
69737;BME280;64476;55.004;73.342;2023-03-09T09:41:42;101727.41;;;1.75;47.17
69737;BME280;64476;55.004;73.342;2023-03-09T09:44:51;101670.44;;;1.39;47.25
69737;BME280;64476;55.004;73.342;2023-03-09T09:47:54;101711.50;;;1.47;47.57
69737;BME280;64476;55.004;73.342;2023-03-09T09:57:43;101724.22;;;1.34;47.73
69737;BME280;64476;55.004;73.342;2023-03-09T10:00:58;101647.22;;;0.82;47.90
69737;BME280;64476;55.004;73.342;2023-03-09T10:04:10;101726.53;;;1.21;48.36
69737;BME280;64476;55.004;73.342;2023-03-09T10:07:18;101738.28;;;1.28;48.65
69737;BME280;64476;55.004;73.342;2023-03-09T10:13:46;101699.66;;;1.24;48.98
69737;BME280;64476;55.004;73.342;2023-03-09T10:16:55;101653.50;;;0.96;49.02
69737;BME280;64476;55.004;73.342;2023-03-09T10:20:36;101750.59;;;1.60;49.61
69737;BME280;64476;55.004;73.342;2023-03-09T10:23:41;101739.50;;;1.57;49.48
69737;BME280;64476;55.004;73.342;2023-03-09T10:26:50;101753.00;;;1.64;49.60
69737;BME280;64476;55.004;73.342;2023-03-09T10:34:05;101720.53;;;1.57;49.64
69737;BME280;64476;55.004;73.342;2023-03-09T10:37:17;101761.91;;;1.58;49.24
69737;BME280;64476;55.004;73.342;2023-03-09T10:40:57;101720.03;;;0.94;49.82
69737;BME280;64476;55.004;73.342;2023-03-09T10:47:04;101708.53;;;0.80;50.34
69737;BME280;64476;55.004;73.342;2023-03-09T10:50:17;101737.81;;;1.01;50.83
69737;BME280;64476;55.004;73.342;2023-03-09T10:53:30;101786.16;;;1.39;50.97
69737;BME280;64476;55.004;73.342;2023-03-09T10:56:42;101765.28;;;1.42;49.99
69737;BME280;64476;55.004;73.342;2023-03-09T11:00:26;101786.16;;;1.39;50.79
69737;BME280;64476;55.004;73.342;2023-03-09T11:03:39;101717.78;;;0.86;50.13
69737;BME280;64476;55.004;73.342;2023-03-09T11:07:29;101733.03;;;0.92;50.84
69737;BME280;64476;55.004;73.342;2023-03-09T11:10:38;101783.56;;;1.20;51.02
69737;BME280;64476;55.004;73.342;2023-03-09T11:13:45;101765.28;;;1.04;50.92
69737;BME280;64476;55.004;73.342;2023-03-09T11:16:59;101719.22;;;0.73;51.06
69737;BME280;64476;55.004;73.342;2023-03-09T11:27:11;101761.88;;;0.64;51.04
69737;BME280;64476;55.004;73.342;2023-03-09T11:30:59;101697.50;;;0.17;50.87
69737;BME280;64476;55.004;73.342;2023-03-09T11:34:02;101783.34;;;0.66;51.25
69737;BME280;64476;55.004;73.342;2023-03-09T11:40:31;101766.94;;;0.47;51.82
69737;BME280;64476;55.004;73.342;2023-03-09T11:46:41;101807.31;;;0.70;52.03
69737;BME280;64476;55.004;73.342;2023-03-09T11:49:44;101758.00;;;0.33;51.85
69737;BME280;64476;55.004;73.342;2023-03-09T11:56:48;101789.13;;;0.10;52.71
69737;BME280;64476;55.004;73.342;2023-03-09T12:03:05;101839.56;;;0.20;53.21
69737;BME280;64476;55.004;73.342;2023-03-09T12:06:56;101806.44;;;-0.14;53.82
69737;BME280;64476;55.004;73.342;2023-03-09T12:10:52;101835.97;;;0.02;54.06
69737;BME280;64476;55.004;73.342;2023-03-09T12:17:12;101793.53;;;-0.36;54.01
69737;BME280;64476;55.004;73.342;2023-03-09T12:27:48;101823.50;;;-0.54;54.87
69737;BME280;64476;55.004;73.342;2023-03-09T12:30:57;101807.53;;;-0.65;54.77
69737;BME280;64476;55.004;73.342;2023-03-09T12:40:40;101787.19;;;-0.73;54.90
69737;BME280;64476;55.004;73.342;2023-03-09T12:43:44;101834.19;;;-0.41;55.02
69737;BME280;64476;55.004;73.342;2023-03-09T12:46:58;101852.63;;;-0.28;55.16
69737;BME280;64476;55.004;73.342;2023-03-09T12:54:23;101843.66;;;-0.64;55.58
69737;BME280;64476;55.004;73.342;2023-03-09T12:57:25;101849.38;;;-0.79;55.39
69737;BME280;64476;55.004;73.342;2023-03-09T13:00:35;101851.53;;;-0.92;56.33
69737;BME280;64476;55.004;73.342;2023-03-09T13:07:33;101799.81;;;-1.37;56.08
69737;BME280;64476;55.004;73.342;2023-03-09T13:10:35;101819.28;;;-1.28;56.27
69737;BME280;64476;55.004;73.342;2023-03-09T13:13:39;101837.34;;;-1.28;56.12
69737;BME280;64476;55.004;73.342;2023-03-09T13:23:35;101860.03;;;-1.38;56.34
69737;BME280;64476;55.004;73.342;2023-03-09T13:26:46;101886.06;;;-1.21;56.95
69737;BME280;64476;55.004;73.342;2023-03-09T13:30:17;101903.28;;;-1.21;57.02
69737;BME280;64476;55.004;73.342;2023-03-09T13:33:35;101839.38;;;-1.63;56.67
69737;BME280;64476;55.004;73.342;2023-03-09T13:36:43;101803.22;;;-1.88;56.52
69737;BME280;64476;55.004;73.342;2023-03-09T13:40:00;101802.06;;;-2.04;57.06
69737;BME280;64476;55.004;73.342;2023-03-09T13:43:16;101900.31;;;-1.36;57.11
69737;BME280;64476;55.004;73.342;2023-03-09T13:46:30;101917.94;;;-1.22;56.53
69737;BME280;64476;55.004;73.342;2023-03-09T13:49:34;101910.38;;;-1.28;56.42
69737;BME280;64476;55.004;73.342;2023-03-09T13:53:04;101862.13;;;-1.49;56.67
69737;BME280;64476;55.004;73.342;2023-03-09T13:56:37;101919.56;;;-1.19;55.80
69737;BME280;64476;55.004;73.342;2023-03-09T14:03:01;101810.13;;;-1.89;55.79
69737;BME280;64476;55.004;73.342;2023-03-09T14:06:09;101913.69;;;-1.24;55.87
69737;BME280;64476;55.004;73.342;2023-03-09T14:12:42;101925.22;;;-1.08;55.85
69737;BME280;64476;55.004;73.342;2023-03-09T14:18:59;101913.34;;;-1.14;55.94
69737;BME280;64476;55.004;73.342;2023-03-09T14:22:02;101915.16;;;-1.16;55.86
69737;BME280;64476;55.004;73.342;2023-03-09T14:36:20;101890.88;;;-1.10;55.75
69737;BME280;64476;55.004;73.342;2023-03-09T14:39:36;101798.91;;;-1.61;55.67
69737;BME280;64476;55.004;73.342;2023-03-09T14:42:43;101850.13;;;-1.25;55.87
69737;BME280;64476;55.004;73.342;2023-03-09T14:45:44;101898.94;;;-0.94;55.42
69737;BME280;64476;55.004;73.342;2023-03-09T14:56:42;101892.69;;;-0.87;55.78
69737;BME280;64476;55.004;73.342;2023-03-09T14:59:45;101857.84;;;-1.24;55.49
69737;BME280;64476;55.004;73.342;2023-03-09T15:06:34;101902.31;;;-0.92;55.33
69737;BME280;64476;55.004;73.342;2023-03-09T15:10:07;101910.25;;;-0.98;55.46
69737;BME280;64476;55.004;73.342;2023-03-09T15:13:09;101845.28;;;-1.35;55.47
69737;BME280;64476;55.004;73.342;2023-03-09T15:16:11;101888.88;;;-1.02;55.57
69737;BME280;64476;55.004;73.342;2023-03-09T15:19:18;101866.16;;;-1.16;55.37
69737;BME280;64476;55.004;73.342;2023-03-09T15:22:20;101887.91;;;-0.98;55.07
69737;BME280;64476;55.004;73.342;2023-03-09T15:25:32;101894.53;;;-0.91;55.10
69737;BME280;64476;55.004;73.342;2023-03-09T15:28:43;101857.56;;;-1.16;54.85
69737;BME280;64476;55.004;73.342;2023-03-09T15:31:45;101876.22;;;-1.10;55.34
69737;BME280;64476;55.004;73.342;2023-03-09T15:34:54;101849.34;;;-1.27;55.52
69737;BME280;64476;55.004;73.342;2023-03-09T15:37:56;101833.72;;;-1.23;55.55
69737;BME280;64476;55.004;73.342;2023-03-09T15:41:06;101857.97;;;-1.03;55.09
69737;BME280;64476;55.004;73.342;2023-03-09T15:44:08;101865.13;;;-1.12;55.34
69737;BME280;64476;55.004;73.342;2023-03-09T15:47:42;101838.06;;;-1.25;54.88
69737;BME280;64476;55.004;73.342;2023-03-09T15:51:16;101883.50;;;-0.96;54.75
69737;BME280;64476;55.004;73.342;2023-03-09T15:54:28;101719.50;;;-2.01;54.66
69737;BME280;64476;55.004;73.342;2023-03-09T15:57:32;101829.53;;;-1.52;55.04
69737;BME280;64476;55.004;73.342;2023-03-09T16:00:38;101847.81;;;-1.33;54.83
69737;BME280;64476;55.004;73.342;2023-03-09T16:03:40;101851.19;;;-1.31;55.19
69737;BME280;64476;55.004;73.342;2023-03-09T16:06:42;101825.91;;;-1.46;54.64
69737;BME280;64476;55.004;73.342;2023-03-09T16:09:49;101867.06;;;-1.18;55.06
69737;BME280;64476;55.004;73.342;2023-03-09T16:12:56;101855.09;;;-1.19;54.95
69737;BME280;64476;55.004;73.342;2023-03-09T16:15:58;101861.81;;;-1.15;54.47
69737;BME280;64476;55.004;73.342;2023-03-09T16:19:00;101862.66;;;-1.15;54.70
69737;BME280;64476;55.004;73.342;2023-03-09T16:22:01;101821.34;;;-1.38;54.49
69737;BME280;64476;55.004;73.342;2023-03-09T16:25:03;101864.94;;;-1.05;54.25
69737;BME280;64476;55.004;73.342;2023-03-09T16:28:12;101876.94;;;-1.04;54.29
69737;BME280;64476;55.004;73.342;2023-03-09T16:31:48;101863.41;;;-1.11;54.35
69737;BME280;64476;55.004;73.342;2023-03-09T16:35:22;101834.50;;;-1.21;54.22
69737;BME280;64476;55.004;73.342;2023-03-09T16:38:57;101862.56;;;-1.12;54.22
69737;BME280;64476;55.004;73.342;2023-03-09T16:42:01;101864.22;;;-1.11;54.05
69737;BME280;64476;55.004;73.342;2023-03-09T16:45:08;101838.91;;;-1.24;54.42
69737;BME280;64476;55.004;73.342;2023-03-09T16:48:10;101812.44;;;-1.29;54.31
69737;BME280;64476;55.004;73.342;2023-03-09T16:51:15;101848.81;;;-1.12;54.17
69737;BME280;64476;55.004;73.342;2023-03-09T16:54:28;101844.50;;;-1.12;54.69
69737;BME280;64476;55.004;73.342;2023-03-09T16:57:34;101858.97;;;-1.07;54.99
69737;BME280;64476;55.004;73.342;2023-03-09T17:00:36;101799.25;;;-1.45;55.06
69737;BME280;64476;55.004;73.342;2023-03-09T17:03:38;101846.72;;;-1.01;54.29
69737;BME280;64476;55.004;73.342;2023-03-09T17:06:41;101806.19;;;-1.22;54.53
69737;BME280;64476;55.004;73.342;2023-03-09T17:09:43;101678.25;;;-2.00;54.26
69737;BME280;64476;55.004;73.342;2023-03-09T17:12:45;101809.75;;;-1.26;54.08
69737;BME280;64476;55.004;73.342;2023-03-09T17:15:46;101841.28;;;-1.18;53.99
69737;BME280;64476;55.004;73.342;2023-03-09T17:18:54;101671.16;;;-2.20;53.88
69737;BME280;64476;55.004;73.342;2023-03-09T17:22:02;101851.69;;;-1.21;54.30
69737;BME280;64476;55.004;73.342;2023-03-09T17:25:04;101797.81;;;-1.54;53.88
69737;BME280;64476;55.004;73.342;2023-03-09T17:28:05;101835.72;;;-1.31;54.00
69737;BME280;64476;55.004;73.342;2023-03-09T17:31:20;101843.28;;;-1.26;54.21
69737;BME280;64476;55.004;73.342;2023-03-09T17:34:31;101714.16;;;-1.95;53.82
69737;BME280;64476;55.004;73.342;2023-03-09T17:37:38;101818.50;;;-1.30;53.89
69737;BME280;64476;55.004;73.342;2023-03-09T17:40:47;101837.50;;;-1.33;53.73
69737;BME280;64476;55.004;73.342;2023-03-09T17:43:54;101766.41;;;-1.92;53.78
69737;BME280;64476;55.004;73.342;2023-03-09T17:47:07;101812.88;;;-1.68;53.92
69737;BME280;64476;55.004;73.342;2023-03-09T17:50:10;101780.94;;;-1.89;54.44
69737;BME280;64476;55.004;73.342;2023-03-09T17:53:17;101810.63;;;-1.77;54.14
69737;BME280;64476;55.004;73.342;2023-03-09T17:56:20;101803.13;;;-1.85;54.36
69737;BME280;64476;55.004;73.342;2023-03-09T17:59:32;101793.38;;;-2.02;54.43
69737;BME280;64476;55.004;73.342;2023-03-09T18:03:06;101821.00;;;-1.79;54.44
69737;BME280;64476;55.004;73.342;2023-03-09T18:06:25;101764.84;;;-2.22;54.39
69737;BME280;64476;55.004;73.342;2023-03-09T18:09:37;101814.59;;;-1.94;54.39
69737;BME280;64476;55.004;73.342;2023-03-09T18:12:39;101821.66;;;-2.00;54.86
69737;BME280;64476;55.004;73.342;2023-03-09T18:15:41;101790.63;;;-2.24;54.33
69737;BME280;64476;55.004;73.342;2023-03-09T18:18:48;101833.50;;;-1.95;54.02
69737;BME280;64476;55.004;73.342;2023-03-09T18:21:53;101824.47;;;-2.08;54.02
69737;BME280;64476;55.004;73.342;2023-03-09T18:25:00;101785.44;;;-2.22;54.17
69737;BME280;64476;55.004;73.342;2023-03-09T18:28:03;101813.38;;;-2.10;54.29
69737;BME280;64476;55.004;73.342;2023-03-09T18:31:05;101741.81;;;-2.55;53.85
69737;BME280;64476;55.004;73.342;2023-03-09T18:34:06;101655.03;;;-3.06;53.78
69737;BME280;64476;55.004;73.342;2023-03-09T18:37:08;101786.44;;;-2.26;53.49
69737;BME280;64476;55.004;73.342;2023-03-09T18:40:16;101823.69;;;-2.10;53.89
69737;BME280;64476;55.004;73.342;2023-03-09T18:43:19;101820.25;;;-2.11;53.52
69737;BME280;64476;55.004;73.342;2023-03-09T18:46:24;101704.63;;;-2.73;53.74
69737;BME280;64476;55.004;73.342;2023-03-09T18:49:30;101759.53;;;-2.46;53.41
69737;BME280;64476;55.004;73.342;2023-03-09T18:52:32;101827.16;;;-2.11;53.72
69737;BME280;64476;55.004;73.342;2023-03-09T18:55:34;101814.06;;;-2.05;53.58
69737;BME280;64476;55.004;73.342;2023-03-09T18:58:46;101786.09;;;-2.16;53.54
69737;BME280;64476;55.004;73.342;2023-03-09T19:01:58;101626.06;;;-3.13;53.30
69737;BME280;64476;55.004;73.342;2023-03-09T19:05:00;101745.59;;;-2.39;53.53
69737;BME280;64476;55.004;73.342;2023-03-09T19:08:04;101790.84;;;-2.03;52.92
69737;BME280;64476;55.004;73.342;2023-03-09T19:11:15;101750.66;;;-2.36;52.90
69737;BME280;64476;55.004;73.342;2023-03-09T19:14:28;101799.56;;;-2.08;52.98
69737;BME280;64476;55.004;73.342;2023-03-09T19:17:36;101747.56;;;-2.47;53.25
69737;BME280;64476;55.004;73.342;2023-03-09T19:20:47;101804.88;;;-2.12;52.65
69737;BME280;64476;55.004;73.342;2023-03-09T19:23:54;101799.94;;;-2.20;52.98
69737;BME280;64476;55.004;73.342;2023-03-09T19:26:56;101747.88;;;-2.56;52.54
69737;BME280;64476;55.004;73.342;2023-03-09T19:34:12;101764.47;;;-2.66;52.91
69737;BME280;64476;55.004;73.342;2023-03-09T19:37:14;101713.09;;;-2.99;53.01
69737;BME280;64476;55.004;73.342;2023-03-09T19:40:19;101765.69;;;-2.80;53.30
69737;BME280;64476;55.004;73.342;2023-03-09T19:43:26;101738.81;;;-2.99;52.99
69737;BME280;64476;55.004;73.342;2023-03-09T19:46:33;101760.25;;;-2.98;53.35
69737;BME280;64476;55.004;73.342;2023-03-09T19:49:35;101802.16;;;-2.65;52.99
69737;BME280;64476;55.004;73.342;2023-03-09T19:52:41;101803.81;;;-2.63;52.74